HAZ0526 ZPPP-ZSHC
Flight info
| Callsign | HAZ0526 |
|---|---|
| Flight time | N/A |
| Altitude | 41100 |
| Route | NODIB4Q NODIB W137 LPS A581 IDGAG W80 XSH DCT JDZ DCT TXN G204 OREXA OREXA62 |
| Aircraft | A359/H-SDE2E3GHIJ3J4J5LM1ORWXY/LB1D1 |
Departure
| Time | 2026-05-04 13:34 |
|---|---|
| Airport | Kunming Changshui International Airport (ZPPP) |
Arrival
| Time | N/A |
|---|---|
| Airport | Hangzhou Xiaoshan International Airport (ZSHC) |
| Time | Latitude | Longitude | Altitude | Speed | Heading |
|---|---|---|---|---|---|
| 2026-05-04 13:19 | 25.11004 | 102.93785 | 6933 ft | 0 kts | 37° |
| 2026-05-04 13:20 | 25.10991 | 102.93774 | 6936 ft | 3 kts | 37° |
| 2026-05-04 13:20 | 25.10976 | 102.93761 | 6936 ft | 3 kts | 32° |
| 2026-05-04 13:20 | 25.10957 | 102.93752 | 6933 ft | 3 kts | 10° |
| 2026-05-04 13:20 | 25.10937 | 102.93751 | 6939 ft | 3 kts | 349° |
| 2026-05-04 13:21 | 25.10918 | 102.93758 | 6933 ft | 3 kts | 327° |
| 2026-05-04 13:21 | 25.10911 | 102.93763 | 6937 ft | 0 kts | 318° |
| 2026-05-04 13:24 | 25.10915 | 102.93759 | 6937 ft | 2 kts | 319° |
| 2026-05-04 13:24 | 25.10941 | 102.93733 | 6937 ft | 7 kts | 315° |
| 2026-05-04 13:25 | 25.11044 | 102.93591 | 6939 ft | 16 kts | 308° |
| 2026-05-04 13:25 | 25.11123 | 102.93482 | 6935 ft | 20 kts | 308° |
| 2026-05-04 13:25 | 25.11216 | 102.93352 | 6937 ft | 23 kts | 308° |
| 2026-05-04 13:25 | 25.11323 | 102.93204 | 6937 ft | 26 kts | 308° |
| 2026-05-04 13:26 | 25.11420 | 102.93069 | 6938 ft | 17 kts | 308° |
| 2026-05-04 13:26 | 25.11520 | 102.93068 | 6938 ft | 17 kts | 33° |
| 2026-05-04 13:26 | 25.11622 | 102.93154 | 6935 ft | 20 kts | 37° |
| 2026-05-04 13:26 | 25.11744 | 102.93260 | 6934 ft | 24 kts | 39° |
| 2026-05-04 13:27 | 25.11883 | 102.93381 | 6932 ft | 27 kts | 38° |
| 2026-05-04 13:27 | 25.12018 | 102.93498 | 6937 ft | 22 kts | 38° |
| 2026-05-04 13:27 | 25.12147 | 102.93611 | 6932 ft | 25 kts | 38° |
| 2026-05-04 13:27 | 25.12294 | 102.93739 | 6931 ft | 28 kts | 38° |
| 2026-05-04 13:28 | 25.12457 | 102.93881 | 6932 ft | 31 kts | 38° |
| 2026-05-04 13:28 | 25.12633 | 102.94033 | 6934 ft | 33 kts | 38° |
| 2026-05-04 13:28 | 25.12777 | 102.94158 | 6935 ft | 11 kts | 38° |
| 2026-05-04 13:28 | 25.12851 | 102.94222 | 6936 ft | 15 kts | 38° |
| 2026-05-04 13:29 | 25.12867 | 102.94236 | 6936 ft | 1 kts | 38° |
| 2026-05-04 13:29 | 25.12882 | 102.94249 | 6939 ft | 5 kts | 38° |
| 2026-05-04 13:29 | 25.12927 | 102.94276 | 6934 ft | 8 kts | 9° |
| 2026-05-04 13:29 | 25.12966 | 102.94256 | 6938 ft | 0 kts | 309° |
| 2026-05-04 13:32 | 25.12967 | 102.94254 | 6937 ft | 1 kts | 309° |
| 2026-05-04 13:32 | 25.12983 | 102.94232 | 6937 ft | 6 kts | 309° |
| 2026-05-04 13:32 | 25.13017 | 102.94178 | 6937 ft | 10 kts | 291° |
| 2026-05-04 13:32 | 25.12992 | 102.94106 | 6935 ft | 11 kts | 225° |
| 2026-05-04 13:33 | 25.12944 | 102.94062 | 6933 ft | 0 kts | 219° |
| 2026-05-04 13:33 | 25.12863 | 102.93991 | 6932 ft | 44 kts | 218° |
| 2026-05-04 13:34 | 25.12451 | 102.93633 | 6936 ft | 104 kts | 218° |
| 2026-05-04 13:34 | 25.11740 | 102.93014 | 6935 ft | 155 kts | 218° |
| 2026-05-04 13:34 | 25.10806 | 102.92188 | 7138 ft | 180 kts | 219° |
| 2026-05-04 13:34 | 25.09900 | 102.91307 | 8015 ft | 169 kts | 227° |
| 2026-05-04 13:35 | 25.09145 | 102.90299 | 8617 ft | 172 kts | 233° |
| 2026-05-04 13:35 | 25.07722 | 102.88162 | 9905 ft | 173 kts | 237° |
| 2026-05-04 13:35 | 25.07010 | 102.87082 | 10459 ft | 181 kts | 237° |
| 2026-05-04 13:36 | 25.06224 | 102.85892 | 10750 ft | 203 kts | 237° |
| 2026-05-04 13:36 | 25.05318 | 102.84557 | 11000 ft | 231 kts | 233° |
| 2026-05-04 13:36 | 25.04026 | 102.83350 | 11325 ft | 260 kts | 211° |
| 2026-05-04 13:36 | 25.02180 | 102.82892 | 11646 ft | 291 kts | 180° |
| 2026-05-04 13:37 | 25.00168 | 102.83576 | 11977 ft | 320 kts | 150° |
| 2026-05-04 13:37 | 24.98381 | 102.85173 | 12346 ft | 342 kts | 138° |
| 2026-05-04 13:37 | 24.96841 | 102.87264 | 12689 ft | 363 kts | 120° |
| 2026-05-04 13:37 | 24.96203 | 102.88992 | 12920 ft | 376 kts | 104° |
| 2026-05-04 13:38 | 24.96196 | 102.92894 | 13491 ft | 389 kts | 73° |
| 2026-05-04 13:38 | 24.97312 | 102.95596 | 14080 ft | 391 kts | 54° |
| 2026-05-04 13:38 | 24.98888 | 102.98040 | 14630 ft | 395 kts | 51° |
| 2026-05-04 13:38 | 25.00555 | 103.00486 | 15216 ft | 399 kts | 50° |
| 2026-05-04 13:39 | 25.02257 | 103.02897 | 15693 ft | 403 kts | 49° |
| 2026-05-04 13:39 | 25.04034 | 103.05332 | 16286 ft | 406 kts | 47° |
| 2026-05-04 13:39 | 25.05831 | 103.07747 | 16882 ft | 409 kts | 47° |
| 2026-05-04 13:39 | 25.07659 | 103.10179 | 17476 ft | 414 kts | 47° |
| 2026-05-04 13:40 | 25.09508 | 103.12632 | 18041 ft | 418 kts | 47° |
| 2026-05-04 13:40 | 25.11375 | 103.15111 | 18577 ft | 421 kts | 47° |
| 2026-05-04 13:40 | 25.13255 | 103.17601 | 19070 ft | 424 kts | 47° |
| 2026-05-04 13:40 | 25.15125 | 103.20073 | 19550 ft | 429 kts | 47° |
| 2026-05-04 13:41 | 25.17053 | 103.22622 | 20052 ft | 432 kts | 47° |
| 2026-05-04 13:41 | 25.19010 | 103.25210 | 20570 ft | 436 kts | 46° |
| 2026-05-04 13:41 | 25.20965 | 103.27797 | 21059 ft | 440 kts | 47° |
| 2026-05-04 13:42 | 25.24885 | 103.32993 | 22044 ft | 447 kts | 46° |
| 2026-05-04 13:42 | 25.26884 | 103.35644 | 22525 ft | 451 kts | 46° |
| 2026-05-04 13:42 | 25.28903 | 103.38324 | 23016 ft | 455 kts | 46° |
| 2026-05-04 13:42 | 25.30937 | 103.41024 | 23468 ft | 459 kts | 46° |
| 2026-05-04 13:43 | 25.32986 | 103.43748 | 23908 ft | 463 kts | 46° |
| 2026-05-04 13:43 | 25.35059 | 103.46505 | 24287 ft | 468 kts | 46° |
| 2026-05-04 13:43 | 25.37145 | 103.49280 | 24675 ft | 472 kts | 46° |
| 2026-05-04 13:43 | 25.39251 | 103.52083 | 25100 ft | 475 kts | 46° |
| 2026-05-04 13:44 | 25.41370 | 103.54905 | 25542 ft | 479 kts | 46° |
| 2026-05-04 13:44 | 25.43509 | 103.57755 | 25968 ft | 483 kts | 46° |
| 2026-05-04 13:44 | 25.45655 | 103.60615 | 26408 ft | 488 kts | 45° |
| 2026-05-04 13:44 | 25.47839 | 103.63530 | 26861 ft | 492 kts | 45° |
| 2026-05-04 13:45 | 25.50031 | 103.66456 | 27299 ft | 496 kts | 45° |
| 2026-05-04 13:45 | 25.52240 | 103.69406 | 27719 ft | 500 kts | 45° |
| 2026-05-04 13:45 | 25.54475 | 103.72394 | 28163 ft | 504 kts | 45° |
| 2026-05-04 13:45 | 25.56719 | 103.75397 | 28597 ft | 508 kts | 45° |
| 2026-05-04 13:46 | 25.58980 | 103.78423 | 29012 ft | 512 kts | 45° |
| 2026-05-04 13:46 | 25.61257 | 103.81475 | 29431 ft | 516 kts | 45° |
| 2026-05-04 13:46 | 25.63553 | 103.84551 | 29852 ft | 519 kts | 44° |
| 2026-05-04 13:46 | 25.65865 | 103.87650 | 30257 ft | 523 kts | 44° |
| 2026-05-04 13:47 | 25.68188 | 103.90769 | 30603 ft | 527 kts | 44° |
| 2026-05-04 13:47 | 25.70524 | 103.93906 | 30969 ft | 529 kts | 44° |
| 2026-05-04 13:47 | 25.72870 | 103.97061 | 31329 ft | 531 kts | 45° |
| 2026-05-04 13:47 | 25.75226 | 104.00231 | 31676 ft | 534 kts | 45° |
| 2026-05-04 13:48 | 25.77593 | 104.03418 | 32003 ft | 536 kts | 45° |
| 2026-05-04 13:48 | 25.79908 | 104.06678 | 32287 ft | 542 kts | 49° |
| 2026-05-04 13:48 | 25.82077 | 104.10115 | 32579 ft | 546 kts | 50° |
| 2026-05-04 13:48 | 25.84189 | 104.13639 | 32865 ft | 549 kts | 51° |
| 2026-05-04 13:49 | 25.86266 | 104.17205 | 33246 ft | 550 kts | 52° |
| 2026-05-04 13:49 | 25.88320 | 104.20774 | 33690 ft | 548 kts | 52° |
| 2026-05-04 13:49 | 25.90364 | 104.24325 | 34118 ft | 547 kts | 52° |
| 2026-05-04 13:49 | 25.92429 | 104.27895 | 34467 ft | 547 kts | 52° |
| 2026-05-04 13:50 | 25.94461 | 104.31393 | 34823 ft | 546 kts | 51° |
| 2026-05-04 13:50 | 25.96523 | 104.34929 | 35190 ft | 544 kts | 51° |
| 2026-05-04 13:50 | 25.98605 | 104.38492 | 35583 ft | 542 kts | 51° |
| 2026-05-04 13:50 | 26.00638 | 104.41953 | 35920 ft | 540 kts | 50° |
| 2026-05-04 13:51 | 26.02923 | 104.45226 | 36242 ft | 532 kts | 41° |
| 2026-05-04 13:51 | 26.05533 | 104.48078 | 36617 ft | 524 kts | 36° |
| 2026-05-04 13:51 | 26.08284 | 104.50796 | 36933 ft | 521 kts | 34° |
| 2026-05-04 13:51 | 26.11009 | 104.53364 | 37257 ft | 520 kts | 33° |
| 2026-05-04 13:52 | 26.16577 | 104.58459 | 37941 ft | 517 kts | 32° |
| 2026-05-04 13:52 | 26.19355 | 104.60998 | 38274 ft | 517 kts | 32° |
| 2026-05-04 13:52 | 26.22125 | 104.63544 | 38627 ft | 515 kts | 32° |
| 2026-05-04 13:53 | 26.24891 | 104.66100 | 38908 ft | 516 kts | 32° |
| 2026-05-04 13:53 | 26.27640 | 104.68650 | 39146 ft | 516 kts | 33° |
| 2026-05-04 13:53 | 26.30387 | 104.71209 | 39402 ft | 515 kts | 33° |
| 2026-05-04 13:54 | 26.35877 | 104.76341 | 39828 ft | 515 kts | 33° |
| 2026-05-04 13:54 | 26.38610 | 104.78913 | 40108 ft | 514 kts | 33° |
| 2026-05-04 13:54 | 26.44077 | 104.84048 | 40497 ft | 514 kts | 33° |
| 2026-05-04 13:55 | 26.46814 | 104.86620 | 40713 ft | 513 kts | 33° |
| 2026-05-04 13:55 | 26.52282 | 104.91757 | 41072 ft | 513 kts | 33° |
| 2026-05-04 13:55 | 26.55011 | 104.94318 | 41190 ft | 514 kts | 33° |
| 2026-05-04 13:56 | 26.60480 | 104.99467 | 41194 ft | 515 kts | 34° |
| 2026-05-04 13:56 | 26.65192 | 105.05626 | 41187 ft | 532 kts | 53° |
| 2026-05-04 13:57 | 26.66954 | 105.09280 | 41196 ft | 536 kts | 58° |
| 2026-05-04 13:58 | 26.73130 | 105.24556 | 41192 ft | 540 kts | 61° |
| 2026-05-04 13:58 | 26.77680 | 105.36085 | 41200 ft | 540 kts | 60° |
| 2026-05-04 13:59 | 26.80718 | 105.43690 | 41202 ft | 540 kts | 60° |
| 2026-05-04 14:00 | 26.85348 | 105.55280 | 41205 ft | 541 kts | 60° |
| 2026-05-04 14:00 | 26.89423 | 105.65520 | 41210 ft | 541 kts | 60° |
| 2026-05-04 14:01 | 26.92974 | 105.74481 | 41201 ft | 542 kts | 60° |
| 2026-05-04 14:02 | 26.97555 | 105.86058 | 41208 ft | 543 kts | 60° |
| 2026-05-04 14:02 | 27.00116 | 105.92546 | 41211 ft | 543 kts | 60° |
| 2026-05-04 14:03 | 27.03165 | 106.00285 | 41203 ft | 543 kts | 60° |
| 2026-05-04 14:03 | 27.06348 | 106.07966 | 41207 ft | 541 kts | 58° |
| 2026-05-04 14:04 | 27.11487 | 106.19231 | 41212 ft | 540 kts | 57° |
| 2026-05-04 14:04 | 27.14937 | 106.26720 | 41210 ft | 540 kts | 57° |
| 2026-05-04 14:05 | 27.20081 | 106.37998 | 41199 ft | 541 kts | 57° |
| 2026-05-04 14:06 | 27.23504 | 106.45529 | 41200 ft | 542 kts | 58° |
| 2026-05-04 14:06 | 27.26922 | 106.53069 | 41202 ft | 542 kts | 57° |
| 2026-05-04 14:07 | 27.30345 | 106.60624 | 41201 ft | 542 kts | 58° |
| 2026-05-04 14:07 | 27.33763 | 106.68178 | 41196 ft | 542 kts | 58° |
| 2026-05-04 14:08 | 27.37156 | 106.75704 | 41196 ft | 542 kts | 58° |
| 2026-05-04 14:08 | 27.40551 | 106.83277 | 41194 ft | 543 kts | 58° |
| 2026-05-04 14:09 | 27.45643 | 106.94677 | 41194 ft | 543 kts | 58° |
| 2026-05-04 14:10 | 27.50763 | 107.06081 | 41190 ft | 544 kts | 57° |
| 2026-05-04 14:10 | 27.54194 | 107.13661 | 41187 ft | 544 kts | 57° |
| 2026-05-04 14:11 | 27.57628 | 107.21260 | 41185 ft | 544 kts | 57° |
| 2026-05-04 14:11 | 27.62771 | 107.32663 | 41184 ft | 544 kts | 57° |
| 2026-05-04 14:12 | 27.66200 | 107.40284 | 41184 ft | 545 kts | 57° |
| 2026-05-04 14:13 | 27.71339 | 107.51743 | 41183 ft | 545 kts | 57° |
| 2026-05-04 14:13 | 27.74762 | 107.59377 | 41178 ft | 545 kts | 57° |
| 2026-05-04 14:14 | 27.78172 | 107.67018 | 41173 ft | 545 kts | 57° |
| 2026-05-04 14:14 | 27.83290 | 107.78498 | 41174 ft | 545 kts | 57° |
| 2026-05-04 14:15 | 27.90247 | 107.93726 | 41179 ft | 546 kts | 57° |
| 2026-05-04 14:16 | 27.95470 | 108.05173 | 41166 ft | 546 kts | 57° |
| 2026-05-04 14:17 | 28.00668 | 108.16620 | 41163 ft | 545 kts | 57° |
| 2026-05-04 14:18 | 28.05859 | 108.28076 | 41165 ft | 546 kts | 57° |
| 2026-05-04 14:19 | 28.12778 | 108.43398 | 41163 ft | 546 kts | 56° |
| 2026-05-04 14:19 | 28.16237 | 108.51061 | 41163 ft | 547 kts | 57° |
| 2026-05-04 14:20 | 28.19679 | 108.58732 | 41163 ft | 547 kts | 57° |
| 2026-05-04 14:20 | 28.23105 | 108.66384 | 41166 ft | 547 kts | 57° |
| 2026-05-04 14:21 | 28.28266 | 108.77922 | 41162 ft | 547 kts | 57° |
| 2026-05-04 14:21 | 28.31727 | 108.85678 | 41167 ft | 547 kts | 57° |
| 2026-05-04 14:22 | 28.35139 | 108.93338 | 41165 ft | 547 kts | 57° |
| 2026-05-04 14:22 | 28.38569 | 109.01047 | 41152 ft | 548 kts | 57° |
| 2026-05-04 14:23 | 28.43712 | 109.12644 | 41156 ft | 548 kts | 57° |
| 2026-05-04 14:24 | 28.47137 | 109.20393 | 41153 ft | 549 kts | 57° |
| 2026-05-04 14:24 | 28.50549 | 109.28143 | 41152 ft | 549 kts | 57° |
| 2026-05-04 14:25 | 28.53962 | 109.35909 | 41147 ft | 549 kts | 57° |
| 2026-05-04 14:25 | 28.58883 | 109.47731 | 41149 ft | 554 kts | 61° |
| 2026-05-04 14:26 | 28.61766 | 109.55878 | 41134 ft | 555 kts | 63° |
| 2026-05-04 14:26 | 28.64567 | 109.64074 | 41141 ft | 555 kts | 63° |
| 2026-05-04 14:27 | 28.67393 | 109.72249 | 41146 ft | 555 kts | 62° |
| 2026-05-04 14:27 | 28.70292 | 109.80390 | 41144 ft | 555 kts | 62° |
| 2026-05-04 14:28 | 28.73215 | 109.88543 | 41143 ft | 555 kts | 62° |
| 2026-05-04 14:28 | 28.76130 | 109.96693 | 41141 ft | 556 kts | 62° |
| 2026-05-04 14:29 | 28.81957 | 110.13019 | 41144 ft | 556 kts | 62° |
| 2026-05-04 14:30 | 28.84886 | 110.21184 | 41139 ft | 556 kts | 62° |
| 2026-05-04 14:31 | 28.89244 | 110.33460 | 41134 ft | 556 kts | 63° |
| 2026-05-04 14:32 | 28.95016 | 110.49869 | 41138 ft | 557 kts | 63° |
| 2026-05-04 14:32 | 28.97912 | 110.58100 | 41139 ft | 558 kts | 63° |
| 2026-05-04 14:33 | 29.00799 | 110.66335 | 41133 ft | 558 kts | 63° |
| 2026-05-04 14:33 | 29.03665 | 110.74510 | 41119 ft | 558 kts | 63° |
| 2026-05-04 14:34 | 29.06576 | 110.82736 | 41123 ft | 559 kts | 62° |
| 2026-05-04 14:34 | 29.09495 | 110.90964 | 41128 ft | 559 kts | 63° |
| 2026-05-04 14:35 | 29.12405 | 110.99196 | 41130 ft | 559 kts | 63° |
| 2026-05-04 14:35 | 29.15316 | 111.07456 | 41121 ft | 559 kts | 63° |
| 2026-05-04 14:36 | 29.18214 | 111.15703 | 41124 ft | 559 kts | 63° |
| 2026-05-04 14:36 | 29.21111 | 111.23963 | 41130 ft | 560 kts | 63° |
| 2026-05-04 14:37 | 29.24009 | 111.32245 | 41115 ft | 560 kts | 63° |
| 2026-05-04 14:37 | 29.26896 | 111.40516 | 41118 ft | 560 kts | 63° |
| 2026-05-04 14:38 | 29.29780 | 111.48803 | 41119 ft | 560 kts | 63° |
| 2026-05-04 14:38 | 29.32660 | 111.57089 | 41113 ft | 560 kts | 63° |
| 2026-05-04 14:39 | 29.35764 | 111.65242 | 41113 ft | 552 kts | 54° |
| 2026-05-04 14:39 | 29.39766 | 111.72703 | 41114 ft | 549 kts | 51° |
| 2026-05-04 14:40 | 29.46034 | 111.83680 | 41121 ft | 548 kts | 50° |
| 2026-05-04 14:40 | 29.50229 | 111.90985 | 41116 ft | 548 kts | 50° |
| 2026-05-04 14:41 | 29.54417 | 111.98317 | 41116 ft | 549 kts | 50° |
| 2026-05-04 14:42 | 29.62755 | 112.12990 | 41107 ft | 549 kts | 51° |
| 2026-05-04 14:42 | 29.66929 | 112.20357 | 41116 ft | 549 kts | 51° |
| 2026-05-04 14:43 | 29.71100 | 112.27731 | 41113 ft | 550 kts | 51° |
| 2026-05-04 14:43 | 29.75262 | 112.35109 | 41113 ft | 550 kts | 51° |
| 2026-05-04 14:44 | 29.79412 | 112.42513 | 41114 ft | 550 kts | 51° |
| 2026-05-04 14:44 | 29.83549 | 112.49915 | 41112 ft | 551 kts | 51° |
| 2026-05-04 14:45 | 29.87698 | 112.57349 | 41114 ft | 551 kts | 51° |
| 2026-05-04 14:45 | 29.91838 | 112.64776 | 41110 ft | 551 kts | 51° |
| 2026-05-04 14:46 | 29.95279 | 112.70962 | 41111 ft | 551 kts | 51° |
| 2026-05-04 14:46 | 29.99420 | 112.78416 | 41113 ft | 551 kts | 52° |
| 2026-05-04 14:47 | 30.03554 | 112.85872 | 41114 ft | 551 kts | 52° |
| 2026-05-04 14:47 | 30.08352 | 112.94542 | 41112 ft | 551 kts | 52° |
| 2026-05-04 14:48 | 30.11810 | 113.00803 | 41111 ft | 552 kts | 52° |
| 2026-05-04 14:48 | 30.15931 | 113.08278 | 41113 ft | 552 kts | 52° |
| 2026-05-04 14:49 | 30.20025 | 113.15718 | 41111 ft | 551 kts | 52° |
| 2026-05-04 14:49 | 30.24159 | 113.23182 | 41111 ft | 551 kts | 51° |
| 2026-05-04 14:50 | 30.28326 | 113.30597 | 41110 ft | 551 kts | 51° |
| 2026-05-04 14:50 | 30.32511 | 113.38044 | 41111 ft | 551 kts | 51° |
| 2026-05-04 14:51 | 30.36677 | 113.45486 | 41107 ft | 551 kts | 52° |
| 2026-05-04 14:51 | 30.40833 | 113.52934 | 41098 ft | 550 kts | 52° |
| 2026-05-04 14:52 | 30.44981 | 113.60383 | 41100 ft | 550 kts | 52° |
| 2026-05-04 14:52 | 30.49120 | 113.67830 | 41110 ft | 550 kts | 52° |
| 2026-05-04 14:53 | 30.53254 | 113.75287 | 41109 ft | 550 kts | 52° |
| 2026-05-04 14:53 | 30.56407 | 113.83433 | 41111 ft | 562 kts | 72° |
| 2026-05-04 14:54 | 30.57038 | 113.87918 | 41109 ft | 566 kts | 85° |
| 2026-05-04 14:54 | 30.56985 | 113.92499 | 41115 ft | 567 kts | 92° |
| 2026-05-04 14:54 | 30.56249 | 114.01613 | 41115 ft | 568 kts | 96° |
| 2026-05-04 14:55 | 30.55285 | 114.10650 | 41113 ft | 568 kts | 97° |
| 2026-05-04 14:55 | 30.54341 | 114.19757 | 41116 ft | 569 kts | 96° |
| 2026-05-04 14:56 | 30.53448 | 114.28872 | 41117 ft | 569 kts | 96° |
| 2026-05-04 14:56 | 30.52562 | 114.37992 | 41119 ft | 569 kts | 96° |
| 2026-05-04 14:57 | 30.51667 | 114.47113 | 41119 ft | 569 kts | 96° |
| 2026-05-04 14:57 | 30.50763 | 114.56246 | 41123 ft | 569 kts | 96° |
| 2026-05-04 14:58 | 30.49851 | 114.65371 | 41128 ft | 570 kts | 96° |
| 2026-05-04 14:58 | 30.48933 | 114.74497 | 41134 ft | 570 kts | 96° |
| 2026-05-04 14:59 | 30.48011 | 114.83608 | 41142 ft | 570 kts | 96° |
| 2026-05-04 15:00 | 30.46611 | 114.97305 | 41146 ft | 570 kts | 96° |
| 2026-05-04 15:00 | 30.45670 | 115.06434 | 41147 ft | 571 kts | 97° |
| 2026-05-04 15:01 | 30.44242 | 115.20131 | 41146 ft | 571 kts | 98° |
| 2026-05-04 15:01 | 30.42067 | 115.28834 | 41144 ft | 565 kts | 119° |
| 2026-05-04 15:02 | 30.38125 | 115.36655 | 41148 ft | 561 kts | 126° |
| 2026-05-04 15:02 | 30.33859 | 115.44211 | 41158 ft | 561 kts | 128° |
| 2026-05-04 15:03 | 30.29558 | 115.51720 | 41155 ft | 560 kts | 127° |
| 2026-05-04 15:03 | 30.25278 | 115.59264 | 41154 ft | 561 kts | 127° |
| 2026-05-04 15:04 | 30.21018 | 115.66814 | 41156 ft | 561 kts | 127° |
| 2026-05-04 15:04 | 30.16760 | 115.74361 | 41157 ft | 561 kts | 127° |
| 2026-05-04 15:05 | 30.12495 | 115.81904 | 41154 ft | 560 kts | 128° |
| 2026-05-04 15:05 | 30.08237 | 115.89420 | 40876 ft | 554 kts | 128° |
| 2026-05-04 15:06 | 30.06140 | 115.93120 | 40420 ft | 551 kts | 128° |
| 2026-05-04 15:06 | 30.04041 | 115.96816 | 39846 ft | 550 kts | 128° |
| 2026-05-04 15:06 | 30.01940 | 116.00508 | 39275 ft | 550 kts | 129° |
| 2026-05-04 15:07 | 29.97732 | 116.07889 | 38061 ft | 550 kts | 129° |
| 2026-05-04 15:07 | 29.95633 | 116.11567 | 37411 ft | 550 kts | 129° |
| 2026-05-04 15:07 | 29.93530 | 116.15248 | 36779 ft | 549 kts | 129° |
| 2026-05-04 15:07 | 29.91428 | 116.18924 | 36169 ft | 548 kts | 129° |
| 2026-05-04 15:08 | 29.89339 | 116.22575 | 35573 ft | 547 kts | 130° |
| 2026-05-04 15:08 | 29.87271 | 116.26188 | 34999 ft | 545 kts | 130° |
| 2026-05-04 15:08 | 29.85184 | 116.29829 | 34428 ft | 544 kts | 130° |
| 2026-05-04 15:08 | 29.83078 | 116.33499 | 33823 ft | 542 kts | 130° |
| 2026-05-04 15:09 | 29.81003 | 116.37108 | 33171 ft | 540 kts | 130° |
| 2026-05-04 15:09 | 29.78927 | 116.40707 | 32529 ft | 538 kts | 131° |
| 2026-05-04 15:09 | 29.76864 | 116.44270 | 31903 ft | 536 kts | 131° |
| 2026-05-04 15:10 | 29.72744 | 116.51389 | 30688 ft | 532 kts | 131° |
| 2026-05-04 15:10 | 29.70695 | 116.54936 | 30100 ft | 530 kts | 131° |
| 2026-05-04 15:10 | 29.66634 | 116.61956 | 28720 ft | 525 kts | 131° |
| 2026-05-04 15:11 | 29.64615 | 116.65433 | 28077 ft | 522 kts | 130° |
| 2026-05-04 15:11 | 29.62630 | 116.68849 | 27524 ft | 517 kts | 130° |
| 2026-05-04 15:11 | 29.60661 | 116.72253 | 27223 ft | 506 kts | 130° |
| 2026-05-04 15:11 | 29.58742 | 116.75577 | 27004 ft | 494 kts | 130° |
| 2026-05-04 15:12 | 29.56866 | 116.78829 | 26866 ft | 480 kts | 130° |
| 2026-05-04 15:12 | 29.55041 | 116.81987 | 26733 ft | 468 kts | 130° |
| 2026-05-04 15:12 | 29.53267 | 116.85055 | 26588 ft | 456 kts | 130° |
| 2026-05-04 15:12 | 29.51530 | 116.88048 | 26409 ft | 446 kts | 130° |
| 2026-05-04 15:13 | 29.49825 | 116.90979 | 26239 ft | 436 kts | 130° |
| 2026-05-04 15:13 | 29.48159 | 116.93830 | 26052 ft | 426 kts | 131° |
| 2026-05-04 15:13 | 29.46518 | 116.96619 | 25882 ft | 416 kts | 131° |
| 2026-05-04 15:13 | 29.44916 | 116.99339 | 25712 ft | 408 kts | 131° |
| 2026-05-04 15:14 | 29.43344 | 117.02015 | 25537 ft | 399 kts | 131° |
| 2026-05-04 15:14 | 29.41808 | 117.04633 | 25364 ft | 391 kts | 131° |
| 2026-05-04 15:14 | 29.40329 | 117.07217 | 25192 ft | 385 kts | 128° |
| 2026-05-04 15:14 | 29.39057 | 117.09891 | 25020 ft | 382 kts | 121° |
| 2026-05-04 15:15 | 29.38054 | 117.12701 | 24858 ft | 378 kts | 113° |
| 2026-05-04 15:15 | 29.37370 | 117.15597 | 24688 ft | 374 kts | 105° |
| 2026-05-04 15:15 | 29.37020 | 117.18520 | 24527 ft | 368 kts | 96° |
| 2026-05-04 15:16 | 29.37290 | 117.24228 | 24202 ft | 355 kts | 79° |
| 2026-05-04 15:16 | 29.37870 | 117.26951 | 23996 ft | 349 kts | 71° |
| 2026-05-04 15:16 | 29.39588 | 117.32057 | 23545 ft | 339 kts | 65° |
| 2026-05-04 15:17 | 29.40516 | 117.34531 | 23267 ft | 336 kts | 64° |
| 2026-05-04 15:17 | 29.42384 | 117.39410 | 22737 ft | 331 kts | 64° |
| 2026-05-04 15:17 | 29.43307 | 117.41821 | 22474 ft | 329 kts | 64° |
| 2026-05-04 15:18 | 29.44217 | 117.44224 | 22205 ft | 327 kts | 64° |
| 2026-05-04 15:18 | 29.45112 | 117.46610 | 21944 ft | 325 kts | 64° |
| 2026-05-04 15:18 | 29.45994 | 117.48983 | 21718 ft | 323 kts | 65° |
| 2026-05-04 15:19 | 29.47742 | 117.53709 | 21203 ft | 319 kts | 64° |
| 2026-05-04 15:19 | 29.48613 | 117.56049 | 20961 ft | 317 kts | 64° |
| 2026-05-04 15:19 | 29.50315 | 117.60672 | 20793 ft | 314 kts | 65° |
| 2026-05-04 15:20 | 29.51156 | 117.62982 | 20793 ft | 313 kts | 65° |
| 2026-05-04 15:20 | 29.51992 | 117.65279 | 20792 ft | 313 kts | 65° |
| 2026-05-04 15:20 | 29.52838 | 117.67598 | 20800 ft | 313 kts | 65° |
| 2026-05-04 15:20 | 29.53681 | 117.69904 | 20797 ft | 313 kts | 65° |
| 2026-05-04 15:21 | 29.54525 | 117.72211 | 20799 ft | 314 kts | 65° |
| 2026-05-04 15:21 | 29.55372 | 117.74525 | 20797 ft | 314 kts | 65° |
| 2026-05-04 15:21 | 29.57067 | 117.79142 | 20799 ft | 314 kts | 65° |
| 2026-05-04 15:22 | 29.57909 | 117.81448 | 20798 ft | 313 kts | 65° |
| 2026-05-04 15:22 | 29.58756 | 117.83756 | 20802 ft | 313 kts | 65° |
| 2026-05-04 15:22 | 29.60443 | 117.88373 | 20801 ft | 314 kts | 65° |
| 2026-05-04 15:23 | 29.61283 | 117.90688 | 20801 ft | 314 kts | 65° |
| 2026-05-04 15:23 | 29.62127 | 117.93013 | 20801 ft | 315 kts | 65° |
| 2026-05-04 15:23 | 29.62970 | 117.95328 | 20799 ft | 314 kts | 65° |
| 2026-05-04 15:23 | 29.63821 | 117.97649 | 20801 ft | 315 kts | 65° |
| 2026-05-04 15:24 | 29.65513 | 118.02290 | 20800 ft | 315 kts | 65° |
| 2026-05-04 15:24 | 29.67191 | 118.06941 | 20803 ft | 315 kts | 65° |
| 2026-05-04 15:25 | 29.68031 | 118.09269 | 20803 ft | 315 kts | 65° |
| 2026-05-04 15:25 | 29.68871 | 118.11593 | 20801 ft | 315 kts | 65° |
| 2026-05-04 15:25 | 29.69711 | 118.13913 | 20801 ft | 315 kts | 65° |
| 2026-05-04 15:26 | 29.71394 | 118.18556 | 20798 ft | 315 kts | 65° |
| 2026-05-04 15:26 | 29.72236 | 118.20890 | 20800 ft | 315 kts | 65° |
| 2026-05-04 15:26 | 29.73430 | 118.25737 | 20801 ft | 317 kts | 82° |
| 2026-05-04 15:27 | 29.73557 | 118.28262 | 20805 ft | 316 kts | 91° |
| 2026-05-04 15:27 | 29.73276 | 118.33305 | 20804 ft | 316 kts | 97° |
| 2026-05-04 15:28 | 29.72777 | 118.38360 | 20283 ft | 317 kts | 98° |
| 2026-05-04 15:28 | 29.72518 | 118.40858 | 20081 ft | 312 kts | 98° |
| 2026-05-04 15:28 | 29.72020 | 118.45787 | 19527 ft | 308 kts | 98° |
| 2026-05-04 15:29 | 29.71785 | 118.48192 | 19269 ft | 306 kts | 97° |
| 2026-05-04 15:30 | 29.70890 | 118.57803 | 18167 ft | 298 kts | 97° |
| 2026-05-04 15:30 | 29.70250 | 118.64817 | 17334 ft | 290 kts | 97° |
| 2026-05-04 15:31 | 29.69827 | 118.69385 | 16802 ft | 284 kts | 97° |
| 2026-05-04 15:31 | 29.69620 | 118.71634 | 16539 ft | 282 kts | 96° |
| 2026-05-04 15:32 | 29.69023 | 118.78265 | 15735 ft | 274 kts | 96° |
| 2026-05-04 15:32 | 29.68630 | 118.82572 | 15229 ft | 269 kts | 96° |
| 2026-05-04 15:33 | 29.68244 | 118.86811 | 14705 ft | 264 kts | 96° |
| 2026-05-04 15:34 | 29.67677 | 118.93000 | 13969 ft | 256 kts | 96° |
| 2026-05-04 15:34 | 29.67554 | 118.94338 | 13787 ft | 254 kts | 96° |
| 2026-05-04 15:34 | 29.67121 | 118.99036 | 13099 ft | 251 kts | 96° |
| 2026-05-04 15:35 | 29.66755 | 119.03000 | 12910 ft | 249 kts | 96° |
| 2026-05-04 15:35 | 29.66633 | 119.04317 | 12910 ft | 249 kts | 96° |
| 2026-05-04 15:35 | 29.66449 | 119.06297 | 12911 ft | 249 kts | 96° |
| 2026-05-04 15:36 | 29.66021 | 119.10904 | 12910 ft | 249 kts | 96° |
| 2026-05-04 15:36 | 29.65896 | 119.12242 | 12907 ft | 249 kts | 96° |
| 2026-05-04 15:36 | 29.65711 | 119.14225 | 12914 ft | 249 kts | 96° |
| 2026-05-04 15:37 | 29.65530 | 119.16196 | 12911 ft | 249 kts | 96° |
| 2026-05-04 15:37 | 29.65353 | 119.18186 | 12914 ft | 249 kts | 96° |
| 2026-05-04 15:37 | 29.65177 | 119.20168 | 12912 ft | 249 kts | 96° |
| 2026-05-04 15:37 | 29.65001 | 119.22150 | 12913 ft | 249 kts | 96° |
| 2026-05-04 15:38 | 29.64827 | 119.24108 | 12915 ft | 249 kts | 96° |
| 2026-05-04 15:38 | 29.64650 | 119.26090 | 12914 ft | 249 kts | 96° |
| 2026-05-04 15:38 | 29.64474 | 119.28071 | 12912 ft | 249 kts | 96° |
| 2026-05-04 15:38 | 29.64296 | 119.30053 | 12915 ft | 250 kts | 96° |
| 2026-05-04 15:39 | 29.64141 | 119.32038 | 12913 ft | 250 kts | 95° |
| 2026-05-04 15:39 | 29.64215 | 119.34027 | 12910 ft | 250 kts | 79° |
| 2026-05-04 15:39 | 29.65365 | 119.37793 | 12910 ft | 250 kts | 67° |
| 2026-05-04 15:40 | 29.66050 | 119.39628 | 12909 ft | 250 kts | 66° |
| 2026-05-04 15:40 | 29.66748 | 119.41458 | 12909 ft | 250 kts | 66° |
| 2026-05-04 15:40 | 29.67449 | 119.43284 | 12912 ft | 250 kts | 66° |
| 2026-05-04 15:40 | 29.68151 | 119.45109 | 12913 ft | 250 kts | 66° |
| 2026-05-04 15:41 | 29.68855 | 119.46937 | 12914 ft | 250 kts | 66° |
| 2026-05-04 15:41 | 29.69559 | 119.48764 | 12912 ft | 250 kts | 66° |
| 2026-05-04 15:41 | 29.70263 | 119.50591 | 12895 ft | 250 kts | 66° |
| 2026-05-04 15:41 | 29.70975 | 119.52442 | 12555 ft | 254 kts | 66° |
| 2026-05-04 15:42 | 29.71680 | 119.54274 | 12312 ft | 249 kts | 66° |
| 2026-05-04 15:42 | 29.72381 | 119.56096 | 12058 ft | 247 kts | 66° |
| 2026-05-04 15:42 | 29.73075 | 119.57899 | 11786 ft | 245 kts | 66° |
| 2026-05-04 15:42 | 29.73765 | 119.59683 | 11517 ft | 243 kts | 65° |
| 2026-05-04 15:43 | 29.74443 | 119.61424 | 11260 ft | 241 kts | 65° |
| 2026-05-04 15:43 | 29.75120 | 119.63170 | 11015 ft | 239 kts | 65° |
| 2026-05-04 15:43 | 29.75794 | 119.64915 | 10755 ft | 237 kts | 65° |
| 2026-05-04 15:43 | 29.76458 | 119.66640 | 10495 ft | 235 kts | 65° |
| 2026-05-04 15:44 | 29.77116 | 119.68352 | 10243 ft | 233 kts | 65° |
| 2026-05-04 15:44 | 29.77769 | 119.70052 | 10001 ft | 231 kts | 65° |
| 2026-05-04 15:44 | 29.78414 | 119.71735 | 9821 ft | 229 kts | 65° |
| 2026-05-04 15:44 | 29.79059 | 119.73417 | 9802 ft | 230 kts | 65° |
| 2026-05-04 15:45 | 29.79700 | 119.75093 | 9801 ft | 230 kts | 65° |
| 2026-05-04 15:45 | 29.80356 | 119.76807 | 9471 ft | 235 kts | 65° |
| 2026-05-04 15:45 | 29.81012 | 119.78521 | 9247 ft | 231 kts | 65° |
| 2026-05-04 15:45 | 29.81657 | 119.80208 | 8987 ft | 229 kts | 66° |
| 2026-05-04 15:46 | 29.82296 | 119.81880 | 8707 ft | 228 kts | 66° |
| 2026-05-04 15:46 | 29.82932 | 119.83546 | 8404 ft | 227 kts | 66° |
| 2026-05-04 15:46 | 29.83567 | 119.85208 | 8125 ft | 226 kts | 66° |
| 2026-05-04 15:46 | 29.84200 | 119.86866 | 7933 ft | 225 kts | 66° |
| 2026-05-04 15:47 | 29.84829 | 119.88516 | 7891 ft | 226 kts | 66° |
| 2026-05-04 15:47 | 29.85461 | 119.90173 | 7892 ft | 226 kts | 66° |
| 2026-05-04 15:47 | 29.86092 | 119.91830 | 7904 ft | 226 kts | 66° |
| 2026-05-04 15:47 | 29.86723 | 119.93486 | 7893 ft | 226 kts | 66° |
| 2026-05-04 15:48 | 29.87353 | 119.95142 | 7896 ft | 226 kts | 66° |
| 2026-05-04 15:48 | 29.87985 | 119.96803 | 7907 ft | 226 kts | 66° |
| 2026-05-04 15:48 | 29.89246 | 120.00119 | 7893 ft | 226 kts | 66° |
| 2026-05-04 15:49 | 29.89868 | 120.01756 | 7902 ft | 226 kts | 66° |
| 2026-05-04 15:49 | 29.90505 | 120.03434 | 7909 ft | 226 kts | 66° |
| 2026-05-04 15:49 | 29.91126 | 120.05068 | 7891 ft | 226 kts | 66° |
| 2026-05-04 15:49 | 29.91764 | 120.06749 | 7894 ft | 226 kts | 66° |
| 2026-05-04 15:50 | 29.92384 | 120.08382 | 7912 ft | 226 kts | 66° |
| 2026-05-04 15:50 | 29.93015 | 120.10046 | 7906 ft | 226 kts | 66° |
| 2026-05-04 15:50 | 29.93645 | 120.11707 | 7757 ft | 228 kts | 65° |
| 2026-05-04 15:50 | 29.94283 | 120.13389 | 7458 ft | 228 kts | 65° |
| 2026-05-04 15:51 | 29.94914 | 120.15056 | 7254 ft | 225 kts | 66° |
| 2026-05-04 15:51 | 29.95538 | 120.16707 | 6997 ft | 224 kts | 66° |
| 2026-05-04 15:51 | 29.96158 | 120.18347 | 6734 ft | 223 kts | 66° |
| 2026-05-04 15:51 | 29.96775 | 120.19979 | 6465 ft | 222 kts | 66° |
| 2026-05-04 15:52 | 29.97392 | 120.21610 | 6177 ft | 222 kts | 66° |
| 2026-05-04 15:52 | 29.98006 | 120.23236 | 5891 ft | 221 kts | 66° |
| 2026-05-04 15:52 | 29.98622 | 120.24857 | 5609 ft | 221 kts | 66° |
| 2026-05-04 15:52 | 29.99245 | 120.26478 | 5328 ft | 221 kts | 66° |
| 2026-05-04 15:53 | 29.99902 | 120.28076 | 5054 ft | 220 kts | 64° |
| 2026-05-04 15:53 | 30.00585 | 120.29652 | 4901 ft | 219 kts | 64° |
| 2026-05-04 15:53 | 30.01280 | 120.31222 | 4876 ft | 220 kts | 63° |
| 2026-05-04 15:53 | 30.01979 | 120.32792 | 4883 ft | 220 kts | 63° |
| 2026-05-04 15:54 | 30.02680 | 120.34364 | 4869 ft | 220 kts | 63° |
| 2026-05-04 15:54 | 30.03381 | 120.35936 | 4883 ft | 220 kts | 63° |
| 2026-05-04 15:54 | 30.04078 | 120.37502 | 4866 ft | 220 kts | 63° |
| 2026-05-04 15:54 | 30.04781 | 120.39075 | 4882 ft | 220 kts | 63° |
| 2026-05-04 15:55 | 30.05482 | 120.40649 | 4866 ft | 220 kts | 63° |
| 2026-05-04 15:55 | 30.06185 | 120.42218 | 4865 ft | 220 kts | 63° |
| 2026-05-04 15:55 | 30.06894 | 120.43792 | 4866 ft | 220 kts | 62° |
| 2026-05-04 15:55 | 30.07591 | 120.45340 | 4881 ft | 221 kts | 63° |
| 2026-05-04 15:56 | 30.08297 | 120.46914 | 4863 ft | 221 kts | 63° |
| 2026-05-04 15:56 | 30.09000 | 120.48489 | 4868 ft | 221 kts | 63° |
| 2026-05-04 15:56 | 30.09711 | 120.50087 | 4878 ft | 221 kts | 63° |
| 2026-05-04 15:56 | 30.10391 | 120.51617 | 4856 ft | 211 kts | 63° |
| 2026-05-04 15:57 | 30.11037 | 120.53076 | 4860 ft | 201 kts | 63° |
| 2026-05-04 15:57 | 30.11671 | 120.54507 | 4864 ft | 200 kts | 63° |
| 2026-05-04 15:57 | 30.12304 | 120.55934 | 4879 ft | 200 kts | 63° |
| 2026-05-04 15:57 | 30.12936 | 120.57361 | 4858 ft | 200 kts | 63° |
| 2026-05-04 15:58 | 30.13566 | 120.58788 | 4864 ft | 199 kts | 63° |
| 2026-05-04 15:58 | 30.14194 | 120.60216 | 4860 ft | 199 kts | 63° |
| 2026-05-04 15:58 | 30.14823 | 120.61643 | 4864 ft | 199 kts | 63° |
| 2026-05-04 15:58 | 30.15450 | 120.63072 | 4866 ft | 200 kts | 63° |
| 2026-05-04 15:59 | 30.16080 | 120.64510 | 4791 ft | 202 kts | 63° |
| 2026-05-04 15:59 | 30.16722 | 120.65975 | 4526 ft | 204 kts | 63° |
| 2026-05-04 15:59 | 30.17360 | 120.67421 | 4332 ft | 200 kts | 63° |
| 2026-05-04 15:59 | 30.17988 | 120.68843 | 4130 ft | 198 kts | 63° |
| 2026-05-04 16:00 | 30.18616 | 120.70259 | 3876 ft | 198 kts | 63° |
| 2026-05-04 16:00 | 30.19246 | 120.71676 | 3645 ft | 197 kts | 63° |
| 2026-05-04 16:00 | 30.19872 | 120.73088 | 3406 ft | 197 kts | 63° |
| 2026-05-04 16:00 | 30.20502 | 120.74489 | 3167 ft | 197 kts | 63° |
| 2026-05-04 16:01 | 30.21346 | 120.75727 | 2968 ft | 198 kts | 40° |
| 2026-05-04 16:01 | 30.22588 | 120.76387 | 2675 ft | 200 kts | 8° |
| 2026-05-04 16:01 | 30.23935 | 120.76219 | 2366 ft | 198 kts | 339° |
| 2026-05-04 16:01 | 30.25184 | 120.75564 | 2114 ft | 196 kts | 331° |
| 2026-05-04 16:02 | 30.26393 | 120.74832 | 2022 ft | 197 kts | 330° |
| 2026-05-04 16:02 | 30.27610 | 120.74104 | 1978 ft | 197 kts | 330° |
| 2026-05-04 16:02 | 30.30031 | 120.72678 | 2002 ft | 196 kts | 331° |
| 2026-05-04 16:03 | 30.31253 | 120.71961 | 2002 ft | 197 kts | 331° |
| 2026-05-04 16:03 | 30.32468 | 120.71244 | 2002 ft | 197 kts | 331° |
| 2026-05-04 16:03 | 30.33693 | 120.70517 | 2005 ft | 197 kts | 330° |
| 2026-05-04 16:03 | 30.34903 | 120.69777 | 1997 ft | 196 kts | 326° |
| 2026-05-04 16:04 | 30.35750 | 120.68621 | 1996 ft | 188 kts | 283° |
| 2026-05-04 16:04 | 30.35015 | 120.65974 | 2001 ft | 177 kts | 235° |
| 2026-05-04 16:04 | 30.34401 | 120.64775 | 1987 ft | 167 kts | 238° |
| 2026-05-04 16:05 | 30.33887 | 120.63643 | 2014 ft | 150 kts | 239° |
| 2026-05-04 16:05 | 30.33432 | 120.62607 | 1993 ft | 140 kts | 239° |
| 2026-05-04 16:05 | 30.32565 | 120.60629 | 1996 ft | 138 kts | 240° |
| 2026-05-04 16:06 | 30.32129 | 120.59630 | 1993 ft | 140 kts | 240° |
| 2026-05-04 16:06 | 30.30958 | 120.56975 | 1984 ft | 138 kts | 239° |
| 2026-05-04 16:07 | 30.30368 | 120.55649 | 1990 ft | 139 kts | 239° |
| 2026-05-04 16:07 | 30.29068 | 120.52697 | 1672 ft | 133 kts | 240° |
| 2026-05-04 16:08 | 30.28657 | 120.51766 | 1496 ft | 128 kts | 240° |
| 2026-05-04 16:08 | 30.27438 | 120.49007 | 997 ft | 129 kts | 240° |
| 2026-05-04 16:09 | 30.26613 | 120.47144 | 653 ft | 131 kts | 241° |
| 2026-05-04 16:09 | 30.25773 | 120.45239 | 308 ft | 133 kts | 242° |
| 2026-05-04 16:10 | 30.24928 | 120.43336 | 41 ft | 130 kts | 243° |